createdAt,value
2019-02-17T00:01:06.088Z,6.22
2019-02-17T00:03:32.499Z,5.87
2019-02-17T00:05:58.866Z,5.45
2019-02-17T00:08:25.187Z,5.58
2019-02-17T00:10:51.580Z,5.78
2019-02-17T00:13:18.155Z,6.10
2019-02-17T00:15:44.499Z,5.75
2019-02-17T00:18:10.877Z,5.47
2019-02-17T00:20:37.454Z,6.40
2019-02-17T00:23:03.744Z,6.28
2019-02-17T00:25:30.138Z,5.55
2019-02-17T00:27:56.756Z,5.70
2019-02-17T00:30:23.147Z,5.35
2019-02-17T00:32:49.751Z,6.10
2019-02-17T00:35:16.152Z,4.95
2019-02-17T00:37:42.898Z,5.97
2019-02-17T00:40:09.341Z,5.85
2019-02-17T00:42:35.619Z,5.85
2019-02-17T00:45:02.298Z,5.30
2019-02-17T00:47:28.607Z,5.37
2019-02-17T00:49:54.987Z,5.67
2019-02-17T00:52:21.301Z,5.80
2019-02-17T00:54:47.681Z,5.55
2019-02-17T00:57:15.094Z,5.92
2019-02-17T00:59:41.459Z,6.00
2019-02-17T01:02:08.056Z,5.42
2019-02-17T01:04:34.332Z,6.22
2019-02-17T01:07:00.764Z,6.35
2019-02-17T01:09:27.146Z,6.20
2019-02-17T01:11:53.458Z,6.35
2019-02-17T01:14:19.847Z,6.47
2019-02-17T01:16:46.144Z,6.72
2019-02-17T01:19:12.443Z,6.60
2019-02-17T01:21:38.715Z,6.22
2019-02-17T01:24:05.027Z,5.92
2019-02-17T01:26:31.774Z,6.15
2019-02-17T01:28:58.183Z,5.58
2019-02-17T01:31:24.466Z,5.87
2019-02-17T01:33:51.199Z,5.28
2019-02-17T01:36:17.482Z,6.62
2019-02-17T01:38:44.044Z,6.70
2019-02-17T01:41:10.678Z,6.33
2019-02-17T01:43:37.339Z,6.40
2019-02-17T01:46:03.998Z,7.28
2019-02-17T01:48:30.477Z,6.03
2019-02-17T01:50:56.886Z,5.62
2019-02-17T01:53:23.267Z,6.00
2019-02-17T01:55:49.584Z,5.42
2019-02-17T01:58:15.959Z,5.75
2019-02-17T02:00:42.554Z,5.92
2019-02-17T02:03:08.879Z,5.83
2019-02-17T02:05:35.629Z,5.42
2019-02-17T02:08:02.271Z,5.87
2019-02-17T02:10:28.921Z,5.75
2019-02-17T02:12:55.302Z,5.83
2019-02-17T02:15:22.079Z,6.20
2019-02-17T02:17:48.466Z,5.50
2019-02-17T02:20:14.833Z,5.50
2019-02-17T02:22:41.592Z,5.58
2019-02-17T02:25:08.056Z,5.80
2019-02-17T02:27:34.459Z,5.58
2019-02-17T02:30:01.294Z,5.17
2019-02-17T02:32:27.884Z,5.42
2019-02-17T02:34:54.168Z,6.03
2019-02-17T02:37:20.568Z,5.25
2019-02-17T02:39:47.168Z,5.90
2019-02-17T02:42:13.573Z,5.45
2019-02-17T02:44:39.930Z,5.10
2019-02-17T02:47:06.637Z,4.90
2019-02-17T02:49:33.273Z,5.65
2019-02-17T02:51:59.679Z,5.47
2019-02-17T02:54:25.952Z,5.90
2019-02-17T02:56:52.363Z,6.33
2019-02-17T02:59:18.711Z,5.75
2019-02-17T03:01:45.014Z,5.53
2019-02-17T03:04:11.395Z,5.95
2019-02-17T03:06:42.436Z,5.87
2019-02-17T03:09:08.825Z,6.45
2019-02-17T03:11:35.275Z,6.80
2019-02-17T03:14:01.762Z,5.50
2019-02-17T03:16:28.466Z,5.50
2019-02-17T03:18:55.177Z,5.70
2019-02-17T03:21:21.478Z,5.17
2019-02-17T03:23:48.072Z,4.97
2019-02-17T03:26:15.545Z,5.45
2019-02-17T03:28:41.975Z,5.92
2019-02-17T03:31:08.691Z,6.00
2019-02-17T03:33:35.423Z,6.33
2019-02-17T03:36:01.805Z,5.37
2019-02-17T03:38:28.199Z,5.47
2019-02-17T03:40:54.498Z,6.03
2019-02-17T03:43:20.914Z,5.60
2019-02-17T03:45:47.201Z,5.78
2019-02-17T03:48:13.599Z,5.65
2019-02-17T03:50:39.969Z,5.55
2019-02-17T03:53:06.593Z,5.62
2019-02-17T03:55:33.318Z,5.25
2019-02-17T03:57:59.705Z,5.35
2019-02-17T04:00:26.123Z,5.55
2019-02-17T04:02:52.495Z,5.47
2019-02-17T04:05:18.892Z,4.78
2019-02-17T04:07:45.259Z,5.75
2019-02-17T04:10:11.695Z,5.85
2019-02-17T04:12:37.991Z,5.25
2019-02-17T04:15:05.302Z,4.67
2019-02-17T04:17:32.038Z,5.22
2019-02-17T04:19:58.483Z,5.58
2019-02-17T04:22:25.211Z,5.08
2019-02-17T04:24:51.602Z,5.72
2019-02-17T04:27:17.879Z,5.92
2019-02-17T04:29:44.264Z,5.97
2019-02-17T04:32:10.839Z,6.10
2019-02-17T04:34:37.239Z,5.05
2019-02-17T04:37:03.615Z,5.53
2019-02-17T04:39:29.925Z,5.78
2019-02-17T04:41:56.242Z,5.20
2019-02-17T04:44:22.507Z,5.53
2019-02-17T04:46:48.917Z,4.80
2019-02-17T04:49:15.312Z,5.20
2019-02-17T04:51:41.709Z,4.92
2019-02-17T04:54:08.077Z,5.72
2019-02-17T04:56:34.369Z,5.03
2019-02-17T04:59:00.646Z,5.58
2019-02-17T05:01:26.976Z,5.28
2019-02-17T05:03:53.355Z,5.50
2019-02-17T05:06:19.769Z,5.35
2019-02-17T05:08:46.134Z,5.62
2019-02-17T05:11:12.778Z,5.42
2019-02-17T05:13:39.091Z,5.42
2019-02-17T05:16:05.376Z,6.67
2019-02-17T05:18:31.766Z,5.53
2019-02-17T05:20:58.387Z,6.08
2019-02-17T05:23:24.953Z,5.37
2019-02-17T05:25:51.319Z,5.75
2019-02-17T05:28:17.740Z,5.85
2019-02-17T05:30:52.128Z,6.12
2019-02-17T05:33:12.707Z,6.50
2019-02-17T05:35:39.071Z,5.60
2019-02-17T05:38:05.375Z,5.62
2019-02-17T05:40:31.765Z,5.53
2019-02-17T05:42:58.163Z,6.00
2019-02-17T05:45:24.567Z,5.75
2019-02-17T05:47:50.854Z,6.35
2019-02-17T05:50:17.140Z,6.42
2019-02-17T05:52:43.544Z,5.42
2019-02-17T05:55:09.938Z,6.60
2019-02-17T05:57:36.330Z,6.50
2019-02-17T06:00:04.900Z,7.53
2019-02-17T06:02:32.764Z,7.33
2019-02-17T06:04:59.518Z,7.30
2019-02-17T06:07:25.939Z,6.28
2019-02-17T06:09:52.322Z,6.37
2019-02-17T06:12:18.785Z,6.47
2019-02-17T06:14:45.295Z,6.80
2019-02-17T06:17:11.687Z,7.42
2019-02-17T06:19:37.967Z,7.95
2019-02-17T06:22:04.277Z,7.10
2019-02-17T06:24:30.975Z,7.50
2019-02-17T06:26:57.611Z,7.40
2019-02-17T06:29:23.991Z,6.62
2019-02-17T06:31:50.259Z,6.50
2019-02-17T06:34:16.559Z,6.20
2019-02-17T06:36:42.824Z,5.90
2019-02-17T06:39:09.216Z,6.15
2019-02-17T06:41:35.746Z,6.30
2019-02-17T06:44:02.031Z,5.60
2019-02-17T06:46:30.339Z,5.40
2019-02-17T06:48:56.638Z,5.40
2019-02-17T06:51:22.915Z,6.10
2019-02-17T06:53:49.502Z,5.40
2019-02-17T06:56:17.987Z,5.10
2019-02-17T06:58:44.445Z,5.45
2019-02-17T07:01:10.848Z,6.05
2019-02-17T07:03:37.636Z,5.53
2019-02-17T07:06:08.639Z,6.30
2019-02-17T07:08:35.300Z,7.60
2019-02-17T07:11:01.647Z,7.92
2019-02-17T07:13:28.239Z,6.62
2019-02-17T07:15:54.642Z,5.85
2019-02-17T07:18:21.034Z,6.33
2019-02-17T07:20:47.345Z,5.87
2019-02-17T07:23:15.284Z,6.03
2019-02-17T07:25:41.910Z,6.55
2019-02-17T07:28:08.215Z,6.22
2019-02-17T07:30:34.806Z,5.72
2019-02-17T07:33:01.758Z,5.83
2019-02-17T07:35:28.129Z,6.35
2019-02-17T07:37:54.514Z,6.65
2019-02-17T07:40:20.778Z,6.97
2019-02-17T07:42:48.289Z,6.78
2019-02-17T07:45:14.677Z,7.05
2019-02-17T07:47:41.279Z,6.58
2019-02-17T07:50:09.145Z,5.60
2019-02-17T07:52:35.532Z,5.53
2019-02-17T07:55:01.923Z,6.47
2019-02-17T07:57:28.756Z,5.92
2019-02-17T07:59:55.383Z,6.35
2019-02-17T08:02:21.646Z,7.17
2019-02-17T08:04:48.262Z,6.42
2019-02-17T08:07:15.002Z,8.08
2019-02-17T08:09:41.400Z,7.47
2019-02-17T08:12:07.680Z,7.60
2019-02-17T08:14:34.078Z,7.00
2019-02-17T08:17:01.144Z,7.53
2019-02-17T08:19:27.621Z,7.20
2019-02-17T08:21:54.022Z,7.37
2019-02-17T08:24:20.649Z,7.62
2019-02-17T08:26:47.048Z,7.40
2019-02-17T08:29:13.313Z,8.98
2019-02-17T08:31:39.630Z,8.78
2019-02-17T08:34:06.022Z,7.65
2019-02-17T08:36:32.338Z,8.20
2019-02-17T08:38:58.723Z,7.10
2019-02-17T08:41:25.134Z,7.53
2019-02-17T08:43:51.439Z,7.67
2019-02-17T08:46:17.778Z,6.22
2019-02-17T08:48:44.167Z,7.12
2019-02-17T08:51:10.603Z,6.53
2019-02-17T08:53:37.330Z,7.03
2019-02-17T08:56:03.623Z,6.40
2019-02-17T08:58:30.407Z,6.97
2019-02-17T09:00:56.795Z,6.67
2019-02-17T09:03:23.146Z,7.00
2019-02-17T09:05:49.507Z,7.40
2019-02-17T09:08:15.813Z,7.63
2019-02-17T09:10:42.194Z,7.33
2019-02-17T09:13:08.794Z,8.57
2019-02-17T09:15:35.073Z,8.13
2019-02-17T09:18:01.595Z,8.33
2019-02-17T09:20:27.864Z,8.77
2019-02-17T09:22:54.402Z,8.80
2019-02-17T09:25:20.690Z,8.53
2019-02-17T09:27:47.087Z,8.50
2019-02-17T09:30:15.340Z,8.90
2019-02-17T09:32:42.002Z,9.83
2019-02-17T09:35:08.386Z,9.70
2019-02-17T09:37:34.991Z,9.83
2019-02-17T09:40:01.368Z,10.37
2019-02-17T09:42:27.676Z,10.33
2019-02-17T09:44:53.966Z,9.97
2019-02-17T09:47:20.254Z,13.87
2019-02-17T09:49:46.575Z,11.73
2019-02-17T09:52:12.941Z,9.90
2019-02-17T09:54:39.238Z,10.23
2019-02-17T09:57:05.511Z,14.30
2019-02-17T09:59:45.167Z,12.00
2019-02-17T10:02:11.607Z,15.67
2019-02-17T10:04:37.922Z,11.70
2019-02-17T10:07:04.588Z,11.27
2019-02-17T10:09:31.214Z,11.53
2019-02-17T10:11:57.948Z,10.63
2019-02-17T10:14:44.079Z,10.27
2019-02-17T10:17:10.371Z,9.73
2019-02-17T10:19:36.679Z,10.67
2019-02-17T10:22:02.960Z,10.60
2019-02-17T10:24:29.335Z,10.50
2019-02-17T10:26:55.726Z,10.57
2019-02-17T10:29:22.069Z,10.43
2019-02-17T10:31:48.762Z,10.53
2019-02-17T10:34:15.037Z,10.53
2019-02-17T10:36:41.528Z,11.20
2019-02-17T10:39:08.066Z,11.27
2019-02-17T10:41:34.454Z,11.17
2019-02-17T10:44:01.136Z,10.93
2019-02-17T10:46:27.448Z,11.83
2019-02-17T10:48:54.099Z,9.67
2019-02-17T10:51:20.410Z,10.03
2019-02-17T10:53:46.685Z,10.23
2019-02-17T10:56:13.090Z,10.37
2019-02-17T10:58:39.654Z,9.77
2019-02-17T11:01:06.151Z,9.47
2019-02-17T11:03:32.679Z,10.07
2019-02-17T11:05:58.971Z,13.23
2019-02-17T11:08:25.675Z,10.83
2019-02-17T11:10:52.062Z,9.93
2019-02-17T11:13:18.634Z,13.90
2019-02-17T11:15:45.026Z,15.53
2019-02-17T11:18:11.611Z,11.57
2019-02-17T11:20:37.944Z,12.37
2019-02-17T11:23:04.324Z,10.63
2019-02-17T11:25:30.702Z,10.93
2019-02-17T11:27:57.473Z,11.77
2019-02-17T11:30:23.847Z,11.10
2019-02-17T11:32:57.709Z,12.20
2019-02-17T11:35:18.607Z,11.23
2019-02-17T11:37:45.256Z,15.67
2019-02-17T11:40:11.778Z,11.87
2019-02-17T11:42:38.108Z,11.10
2019-02-17T11:45:10.733Z,9.37
2019-02-17T11:47:37.413Z,9.70
2019-02-17T11:50:05.786Z,7.93
2019-02-17T11:52:32.159Z,7.97
2019-02-17T11:54:58.778Z,7.63
2019-02-17T11:57:25.063Z,8.67
2019-02-17T11:59:51.363Z,8.43
2019-02-17T12:02:24.685Z,7.43
2019-02-17T12:04:46.129Z,7.67
2019-02-17T12:07:12.676Z,7.93
2019-02-17T12:09:38.979Z,10.03
2019-02-17T12:12:05.355Z,8.93
2019-02-17T12:14:31.751Z,9.33
2019-02-17T12:16:58.017Z,9.03
2019-02-17T12:19:24.307Z,9.97
2019-02-17T12:21:52.511Z,17.13
2019-02-17T12:24:20.807Z,10.33
2019-02-17T12:27:00.803Z,8.63
2019-02-17T12:29:31.969Z,7.53
2019-02-17T12:31:58.264Z,8.43
2019-02-17T12:34:24.531Z,7.17
2019-02-17T12:36:50.914Z,7.17
2019-02-17T12:39:17.191Z,9.23
2019-02-17T12:41:43.482Z,10.37
2019-02-17T12:44:09.751Z,8.07
2019-02-17T12:46:36.305Z,7.30
2019-02-17T12:49:02.930Z,7.10
2019-02-17T12:51:30.592Z,7.30
2019-02-17T12:53:56.863Z,6.83
2019-02-17T12:56:23.165Z,6.93
2019-02-17T12:58:49.882Z,7.60
2019-02-17T13:01:16.415Z,7.33
2019-02-17T13:03:42.702Z,8.83
2019-02-17T13:06:09.287Z,7.10
2019-02-17T13:08:35.594Z,6.90
2019-02-17T13:11:01.863Z,6.77
2019-02-17T13:13:28.146Z,6.80
2019-02-17T13:15:54.414Z,6.73
2019-02-17T13:18:21.172Z,6.30
2019-02-17T13:20:47.442Z,7.30
2019-02-17T13:23:14.114Z,7.57
2019-02-17T13:25:40.386Z,6.57
2019-02-17T13:28:06.778Z,6.67
2019-02-17T13:30:34.334Z,8.60
2019-02-17T13:33:00.629Z,6.73
2019-02-17T13:35:26.890Z,6.37
2019-02-17T13:37:53.535Z,6.63
2019-02-17T13:40:19.793Z,6.23
2019-02-17T13:42:46.350Z,6.37
2019-02-17T13:45:14.063Z,6.97
2019-02-17T13:47:40.455Z,7.67
2019-02-17T13:50:09.448Z,6.63
2019-02-17T13:52:35.879Z,6.77
2019-02-17T13:55:03.474Z,6.63
2019-02-17T13:57:29.745Z,6.50
2019-02-17T13:59:56.134Z,6.57
2019-02-17T14:02:22.412Z,6.43
2019-02-17T14:04:48.812Z,6.60
2019-02-17T14:07:15.443Z,6.13
2019-02-17T14:09:42.095Z,7.33
2019-02-17T14:12:08.472Z,6.77
2019-02-17T14:14:35.055Z,7.83
2019-02-17T14:17:01.425Z,6.97
2019-02-17T14:19:27.818Z,6.60
2019-02-17T14:21:54.122Z,6.20
2019-02-17T14:24:20.419Z,6.50
2019-02-17T14:26:46.927Z,6.60
2019-02-17T14:29:13.390Z,6.07
2019-02-17T14:31:39.671Z,6.53
2019-02-17T14:34:05.956Z,6.73
2019-02-17T14:36:32.251Z,5.70
2019-02-17T14:38:58.542Z,6.30
2019-02-17T14:41:24.947Z,6.33
2019-02-17T14:43:51.294Z,5.43
2019-02-17T14:46:17.598Z,6.17
2019-02-17T14:48:43.963Z,5.20
2019-02-17T14:51:10.737Z,5.27
2019-02-17T14:53:37.245Z,4.80
2019-02-17T14:56:03.541Z,5.73
2019-02-17T14:58:29.906Z,5.90
2019-02-17T15:00:56.194Z,5.67
2019-02-17T15:03:22.461Z,5.30
2019-02-17T15:05:49.127Z,6.10
2019-02-17T15:08:15.531Z,5.83
2019-02-17T15:10:41.994Z,6.33
2019-02-17T15:13:08.625Z,7.17
2019-02-17T15:15:34.986Z,6.77
2019-02-17T15:18:01.598Z,8.57
2019-02-17T15:20:28.065Z,6.10
2019-02-17T15:22:54.371Z,5.37
2019-02-17T15:25:21.683Z,6.77
2019-02-17T15:27:48.031Z,5.63
2019-02-17T15:30:17.641Z,5.00
2019-02-17T15:32:43.892Z,5.43
2019-02-17T15:35:10.251Z,5.80
2019-02-17T15:37:36.859Z,5.00
2019-02-17T15:40:06.977Z,5.10
2019-02-17T15:42:33.333Z,5.73
2019-02-17T15:44:59.690Z,6.50
2019-02-17T15:47:25.976Z,6.00
2019-02-17T15:49:52.354Z,5.70
2019-02-17T15:52:18.626Z,7.87
2019-02-17T15:54:45.262Z,6.23
2019-02-17T15:57:11.804Z,5.70
2019-02-17T15:59:38.207Z,7.90
2019-02-17T16:02:04.470Z,6.13
2019-02-17T16:04:30.774Z,6.07
2019-02-17T16:06:57.536Z,5.17
2019-02-17T16:09:23.931Z,5.47
2019-02-17T16:11:50.200Z,6.57
2019-02-17T16:14:16.939Z,6.03
2019-02-17T16:16:43.508Z,7.23
2019-02-17T16:19:10.214Z,7.90
2019-02-17T16:21:36.506Z,6.43
2019-02-17T16:24:03.779Z,5.73
2019-02-17T16:26:30.107Z,4.60
2019-02-17T16:28:56.630Z,5.33
2019-02-17T16:31:22.917Z,5.37
2019-02-17T16:33:49.530Z,5.30
2019-02-17T16:36:15.823Z,5.50
2019-02-17T16:38:42.401Z,5.90
2019-02-17T16:41:09.145Z,5.20
2019-02-17T16:43:35.799Z,4.63
2019-02-17T16:46:02.196Z,4.97
2019-02-17T16:48:28.463Z,4.90
2019-02-17T16:50:55.085Z,5.17
2019-02-17T16:53:21.719Z,3.90
2019-02-17T16:55:48.191Z,3.73
2019-02-17T16:58:14.502Z,4.40
2019-02-17T17:00:40.797Z,4.07
2019-02-17T17:03:07.446Z,4.13
2019-02-17T17:05:33.724Z,4.53
2019-02-17T17:08:00.029Z,4.60
2019-02-17T17:10:26.617Z,4.70
2019-02-17T17:12:52.902Z,4.83
2019-02-17T17:15:19.210Z,4.00
2019-02-17T17:17:45.524Z,4.50
2019-02-17T17:20:16.652Z,4.30
2019-02-17T17:22:42.950Z,4.57
2019-02-17T17:25:09.854Z,4.07
2019-02-17T17:27:36.362Z,4.87
2019-02-17T17:30:05.439Z,4.23
2019-02-17T17:32:33.014Z,4.20
2019-02-17T17:34:59.530Z,4.67
2019-02-17T17:37:27.086Z,4.03
2019-02-17T17:39:53.363Z,3.97
2019-02-17T17:42:20.098Z,4.20
2019-02-17T17:44:46.598Z,4.33
2019-02-17T17:47:13.216Z,3.87
2019-02-17T17:49:39.617Z,3.93
2019-02-17T17:52:06.004Z,4.03
2019-02-17T17:54:32.695Z,4.63
2019-02-17T17:56:59.083Z,7.13
2019-02-17T17:59:25.582Z,9.97
2019-02-17T18:01:51.861Z,8.60
2019-02-17T18:04:19.362Z,8.33
2019-02-17T18:06:46.024Z,8.40
2019-02-17T18:09:12.447Z,7.73
2019-02-17T18:11:38.759Z,6.67
2019-02-17T18:14:05.455Z,6.13
2019-02-17T18:16:31.823Z,6.23
2019-02-17T18:18:58.119Z,5.87
2019-02-17T18:21:24.670Z,5.30
2019-02-17T18:23:50.965Z,5.20
2019-02-17T18:26:17.235Z,5.03
2019-02-17T18:28:43.558Z,4.10
2019-02-17T18:31:09.828Z,4.40
2019-02-17T18:33:36.227Z,5.87
2019-02-17T18:36:02.503Z,6.30
2019-02-17T18:38:28.803Z,6.87
2019-02-17T18:40:55.123Z,7.30
2019-02-17T18:43:21.430Z,7.00
2019-02-17T18:45:48.032Z,7.23
2019-02-17T18:48:14.491Z,7.27
2019-02-17T18:50:40.803Z,7.10
2019-02-17T18:53:07.073Z,6.07
2019-02-17T18:55:33.467Z,9.57
2019-02-17T18:57:59.850Z,11.10
2019-02-17T19:00:26.324Z,7.90
2019-02-17T19:02:52.707Z,6.20
2019-02-17T19:05:30.860Z,7.97
2019-02-17T19:07:48.420Z,6.60
2019-02-17T19:10:14.892Z,6.30
2019-02-17T19:12:41.460Z,9.37
2019-02-17T19:15:10.467Z,15.27
2019-02-17T19:17:36.737Z,14.50
2019-02-17T19:20:07.166Z,10.00
2019-02-17T19:22:33.942Z,8.90
2019-02-17T19:25:00.354Z,8.97
2019-02-17T19:27:39.817Z,9.00
2019-02-17T19:30:11.498Z,7.07
2019-02-17T19:32:37.893Z,5.57
2019-02-17T19:35:07.536Z,5.80
2019-02-17T19:37:33.938Z,8.67
2019-02-17T19:40:00.324Z,7.77
2019-02-17T19:42:26.731Z,6.10
2019-02-17T19:44:53.104Z,5.13
2019-02-17T19:47:19.405Z,5.17
2019-02-17T19:49:46.039Z,4.83
2019-02-17T19:52:12.402Z,4.50
2019-02-17T19:54:39.149Z,5.57
2019-02-17T19:57:05.582Z,4.40
2019-02-17T19:59:32.231Z,4.37
2019-02-17T20:01:58.557Z,4.80
2019-02-17T20:04:28.135Z,6.67
2019-02-17T20:06:54.481Z,7.23
2019-02-17T20:09:20.858Z,7.67
2019-02-17T20:11:47.142Z,7.23
2019-02-17T20:14:13.525Z,8.47
2019-02-17T20:16:39.977Z,6.37
2019-02-17T20:19:06.381Z,8.43
2019-02-17T20:21:32.650Z,9.43
2019-02-17T20:23:58.945Z,8.63
2019-02-17T20:26:25.364Z,7.00
2019-02-17T20:28:57.101Z,6.57
2019-02-17T20:31:20.350Z,7.17
2019-02-17T20:33:47.028Z,6.13
2019-02-17T20:36:13.396Z,7.13
2019-02-17T20:38:39.693Z,5.73
2019-02-17T20:41:06.385Z,6.10
2019-02-17T20:43:32.688Z,5.90
2019-02-17T20:45:58.959Z,7.27
2019-02-17T20:48:25.263Z,6.47
2019-02-17T20:50:51.531Z,6.27
2019-02-17T20:53:18.134Z,5.43
2019-02-17T20:55:44.495Z,5.13
2019-02-17T20:58:10.802Z,4.87
2019-02-17T21:00:37.084Z,4.60
2019-02-17T21:03:05.498Z,5.67
2019-02-17T21:05:32.052Z,6.17
2019-02-17T21:07:58.479Z,7.83
2019-02-17T21:10:25.829Z,7.27
2019-02-17T21:12:52.679Z,6.30
2019-02-17T21:15:20.659Z,5.37
2019-02-17T21:17:47.105Z,5.20
2019-02-17T21:20:14.026Z,4.90
2019-02-17T21:22:40.699Z,4.93
2019-02-17T21:25:08.694Z,4.70
2019-02-17T21:27:35.374Z,5.40
2019-02-17T21:30:03.048Z,5.60
2019-02-17T21:32:31.335Z,5.93
2019-02-17T21:34:57.746Z,4.90
2019-02-17T21:37:24.016Z,5.63
2019-02-17T21:39:50.313Z,4.87
2019-02-17T21:42:16.671Z,4.67
2019-02-17T21:44:42.960Z,4.60
2019-02-17T21:47:09.403Z,5.03
2019-02-17T21:49:36.044Z,4.80
2019-02-17T21:52:02.346Z,5.30
2019-02-17T21:54:28.713Z,4.40
2019-02-17T21:56:55.343Z,4.70
2019-02-17T21:59:21.610Z,5.17
2019-02-17T22:01:48.002Z,5.93
2019-02-17T22:04:14.307Z,5.10
2019-02-17T22:06:40.716Z,4.60
2019-02-17T22:09:07.248Z,4.07
2019-02-17T22:11:33.574Z,4.50
2019-02-17T22:13:59.842Z,4.57
2019-02-17T22:16:27.179Z,4.90
2019-02-17T22:18:53.443Z,6.37
2019-02-17T22:21:19.739Z,6.37
2019-02-17T22:23:46.002Z,6.40
2019-02-17T22:26:13.398Z,6.00
2019-02-17T22:28:39.663Z,6.00
2019-02-17T22:31:05.958Z,5.37
2019-02-17T22:33:32.558Z,6.37
2019-02-17T22:35:58.850Z,7.80
2019-02-17T22:38:25.119Z,9.07
2019-02-17T22:40:51.426Z,8.43
2019-02-17T22:43:17.790Z,6.87
2019-02-17T22:45:44.067Z,5.93
2019-02-17T22:48:10.366Z,6.37
2019-02-17T22:50:36.638Z,7.83
2019-02-17T22:53:02.930Z,7.83
2019-02-17T22:55:29.562Z,9.60
2019-02-17T22:57:55.867Z,9.53
2019-02-17T23:00:49.938Z,8.53
2019-02-17T23:03:16.578Z,8.05
2019-02-17T23:05:43.326Z,8.23
2019-02-17T23:08:09.636Z,8.30
2019-02-17T23:10:35.910Z,8.18
2019-02-17T23:13:02.310Z,8.03
2019-02-17T23:15:28.590Z,9.88
2019-02-17T23:17:55.230Z,7.92
2019-02-17T23:20:24.238Z,6.67
2019-02-17T23:22:50.613Z,6.90
2019-02-17T23:25:16.905Z,6.83
2019-02-17T23:27:43.201Z,7.65
2019-02-17T23:30:10.202Z,6.58
2019-02-17T23:32:36.473Z,6.65
2019-02-17T23:35:03.396Z,6.75
2019-02-17T23:37:29.779Z,6.70
2019-02-17T23:39:56.081Z,6.22
2019-02-17T23:42:22.354Z,6.12
2019-02-17T23:44:49.083Z,6.25
2019-02-17T23:47:15.454Z,5.67
2019-02-17T23:49:41.751Z,5.60
2019-02-17T23:52:08.122Z,5.80
2019-02-17T23:54:34.428Z,5.08
2019-02-17T23:57:00.766Z,5.42
2019-02-17T23:59:27.475Z,6.30
